Time;durP1;ratioP1;P1;durP2;ratioP2;P2;SDS_P1;SDS_P2;PMS_P1;PMS_P2;Temp;Humidity;BMP_temperature;BMP_pressure;BME280_temperature;BME280_humidity;BME280_pressure;Samples;Min_cycle;Max_cycle;Signal;HPM_P1;HPM_P2
2023/12/05 00:01:17;;;;;;;3.20;0.77;;;6.80;99.90;;;;;;5146590;28;20288;-47
2023/12/05 00:03:43;;;;;;;2.47;0.90;;;6.80;99.90;;;;;;5148524;27;20027;-47
2023/12/05 00:06:12;;;;;;;2.00;0.75;;;6.80;99.90;;;;;;5151069;27;20092;-49
2023/12/05 00:08:37;;;;;;;2.97;0.80;;;6.80;99.90;;;;;;5149739;27;20339;-49
2023/12/05 00:11:06;;;;;;;2.95;0.77;;;6.80;99.90;;;;;;5150375;27;20035;-49
2023/12/05 00:13:32;;;;;;;3.03;0.73;;;6.80;99.90;;;;;;5150749;27;20023;-49
2023/12/05 00:15:58;;;;;;;1.02;0.80;;;6.80;99.90;;;;;;5149967;27;20196;-49
2023/12/05 00:18:24;;;;;;;4.18;0.90;;;6.80;99.90;;;;;;5150864;27;20055;-49
2023/12/05 00:20:50;;;;;;;2.83;0.90;;;6.80;99.90;;;;;;5150425;27;20276;-49
2023/12/05 00:23:16;;;;;;;1.67;0.70;;;6.80;99.90;;;;;;5149432;27;20098;-49
2023/12/05 00:25:42;;;;;;;1.25;0.98;;;6.80;99.90;;;;;;5149460;27;20103;-49
2023/12/05 00:28:07;;;;;;;3.40;0.90;;;6.80;99.90;;;;;;5150622;27;20030;-49
2023/12/05 00:30:33;;;;;;;1.85;0.80;;;6.80;99.90;;;;;;5150562;27;20033;-49
2023/12/05 00:32:59;;;;;;;1.45;0.73;;;6.80;99.90;;;;;;5150418;27;20031;-48
2023/12/05 00:35:24;;;;;;;1.48;0.73;;;6.80;99.90;;;;;;5150302;27;20018;-47
2023/12/05 00:37:50;;;;;;;1.20;0.90;;;6.80;99.90;;;;;;5150455;27;20022;-48
2023/12/05 00:40:16;;;;;;;2.42;0.82;;;6.80;99.90;;;;;;5150364;27;20031;-49
2023/12/05 00:42:42;;;;;;;1.85;0.85;;;6.90;99.90;;;;;;5149971;27;20345;-49
2023/12/05 00:45:10;;;;;;;1.25;0.80;;;6.80;99.90;;;;;;5150074;27;20345;-49
2023/12/05 00:47:36;;;;;;;3.38;0.80;;;6.80;99.90;;;;;;5150111;27;20041;-48
2023/12/05 00:50:01;;;;;;;2.60;0.80;;;6.80;99.90;;;;;;5150215;27;20027;-49
2023/12/05 00:52:27;;;;;;;1.55;0.80;;;6.80;99.90;;;;;;5150187;27;20027;-49
2023/12/05 00:54:53;;;;;;;1.13;0.70;;;6.80;99.90;;;;;;5148751;27;20173;-50
2023/12/05 00:57:18;;;;;;;2.20;0.80;;;6.80;99.90;;;;;;5149868;27;20034;-49
2023/12/05 00:59:44;;;;;;;1.30;0.77;;;6.80;99.90;;;;;;5149562;27;20037;-47
2023/12/05 01:02:10;;;;;;;2.95;0.90;;;6.80;99.90;;;;;;5148815;27;20103;-47
2023/12/05 01:04:36;;;;;;;1.70;0.85;;;6.80;99.90;;;;;;5148833;27;20035;-47
2023/12/05 01:07:02;;;;;;;4.07;0.90;;;6.80;99.90;;;;;;5149536;27;20039;-46
2023/12/05 01:09:28;;;;;;;0.80;0.80;;;6.80;99.90;;;;;;5149647;27;20084;-46
2023/12/05 01:11:54;;;;;;;4.32;0.80;;;6.80;99.90;;;;;;5148726;27;20086;-46
2023/12/05 01:14:20;;;;;;;1.98;0.90;;;6.80;99.90;;;;;;5148815;27;20031;-46
2023/12/05 01:16:45;;;;;;;1.48;0.98;;;6.80;99.90;;;;;;5149574;27;20033;-46
2023/12/05 01:19:11;;;;;;;1.40;0.68;;;6.80;99.90;;;;;;5149394;27;20027;-48
2023/12/05 01:21:37;;;;;;;2.13;0.98;;;6.90;99.90;;;;;;5149487;27;20027;-49
2023/12/05 01:24:03;;;;;;;3.88;0.90;;;6.90;99.90;;;;;;5148423;27;20038;-49
2023/12/05 01:26:28;;;;;;;4.28;1.42;;;6.80;99.90;;;;;;5149493;27;20262;-48
2023/12/05 01:28:54;;;;;;;2.35;0.90;;;6.80;99.90;;;;;;5149372;27;20047;-48
2023/12/05 01:31:20;;;;;;;2.08;1.00;;;6.80;99.90;;;;;;5148119;27;20050;-48
2023/12/05 01:33:46;;;;;;;2.78;1.30;;;6.90;99.90;;;;;;5148472;27;20192;-49
2023/12/05 01:36:12;;;;;;;3.85;1.25;;;6.90;99.90;;;;;;5149375;27;20015;-49
2023/12/05 01:38:38;;;;;;;5.13;1.27;;;6.90;99.90;;;;;;5148214;27;20043;-49
2023/12/05 01:41:04;;;;;;;2.03;1.10;;;6.90;99.90;;;;;;5148948;27;20039;-48
2023/12/05 01:43:29;;;;;;;1.80;1.27;;;6.80;99.90;;;;;;5149115;27;20023;-50
2023/12/05 01:45:55;;;;;;;3.85;1.00;;;6.80;99.90;;;;;;5149174;27;20053;-50
2023/12/05 01:48:21;;;;;;;2.72;1.02;;;6.80;99.90;;;;;;5149047;27;20031;-50
2023/12/05 01:50:47;;;;;;;5.00;1.00;;;6.80;99.90;;;;;;5148016;27;20055;-50
2023/12/05 01:53:12;;;;;;;1.48;1.00;;;6.90;99.90;;;;;;5148139;27;20285;-48
2023/12/05 01:55:38;;;;;;;2.28;1.02;;;6.90;99.90;;;;;;5148905;27;20104;-49
2023/12/05 01:58:04;;;;;;;4.03;1.10;;;6.90;99.90;;;;;;5147876;27;20068;-50
2023/12/05 02:00:30;;;;;;;3.53;1.00;;;6.80;99.90;;;;;;5148348;27;20030;-47
2023/12/05 02:02:56;;;;;;;2.83;1.17;;;6.80;99.90;;;;;;5148494;27;20289;-48
2023/12/05 02:05:22;;;;;;;2.30;1.05;;;6.80;99.90;;;;;;5147519;27;20027;-47
2023/12/05 02:07:48;;;;;;;2.35;0.90;;;6.80;99.90;;;;;;5130096;27;20211;-47
2023/12/05 02:10:13;;;;;;;2.45;0.90;;;6.80;99.90;;;;;;5148652;27;20185;-47
2023/12/05 02:12:39;;;;;;;1.38;0.95;;;6.80;99.90;;;;;;5147307;27;20019;-48
2023/12/05 02:15:05;;;;;;;2.92;1.10;;;6.80;99.90;;;;;;5148618;27;20048;-47
2023/12/05 02:18:03;;;;;;;1.70;1.00;;;6.80;99.90;;;;;;5147255;27;20046;-47
2023/12/05 02:20:40;;;;;;;3.65;0.80;;;6.80;99.90;;;;;;5147435;27;20043;-48
2023/12/05 02:23:21;;;;;;;1.65;0.90;;;6.80;99.90;;;;;;5147398;27;20177;-48
2023/12/05 02:25:52;;;;;;;2.30;0.90;;;6.80;99.90;;;;;;5147486;27;20023;-50
2023/12/05 02:28:18;;;;;;;1.65;0.80;;;6.80;99.90;;;;;;5148195;27;20062;-49
2023/12/05 02:30:44;;;;;;;0.80;0.70;;;6.80;99.90;;;;;;5147792;27;20046;-50
2023/12/05 02:33:10;;;;;;;2.65;0.80;;;6.80;99.90;;;;;;5146995;27;20076;-50
2023/12/05 02:35:35;;;;;;;3.03;0.90;;;6.80;99.90;;;;;;5147718;27;20034;-49
2023/12/05 02:38:24;;;;;;;1.98;0.88;;;6.80;99.90;;;;;;5130166;27;20019;-50
2023/12/05 02:41:13;;;;;;;5.72;1.10;;;6.70;99.90;;;;;;5130506;27;20091;-51
2023/12/05 02:43:46;;;;;;;1.42;0.70;;;6.80;99.90;;;;;;5147070;27;20094;-50
2023/12/05 02:46:12;;;;;;;0.95;0.80;;;6.80;99.90;;;;;;5147949;27;20168;-50
2023/12/05 02:48:37;;;;;;;1.73;0.88;;;6.80;99.90;;;;;;5146830;27;20292;-50
2023/12/05 02:51:03;;;;;;;4.00;1.05;;;6.70;99.90;;;;;;5129684;27;20044;-49
2023/12/05 02:53:29;;;;;;;3.05;1.02;;;6.70;99.90;;;;;;5146644;27;20260;-50
2023/12/05 02:55:55;;;;;;;1.67;0.70;;;6.70;99.90;;;;;;5147688;27;20060;-50
2023/12/05 02:58:20;;;;;;;0.63;0.63;;;6.70;99.90;;;;;;5147696;27;20340;-50
2023/12/05 03:00:46;;;;;;;4.55;0.95;;;6.70;99.90;;;;;;5147289;27;20035;-50
2023/12/05 03:03:12;;;;;;;2.35;1.10;;;6.70;99.90;;;;;;5147705;27;20061;-50
2023/12/05 03:05:37;;;;;;;2.65;1.00;;;6.70;99.90;;;;;;5147422;27;20297;-49
2023/12/05 03:08:03;;;;;;;1.15;0.90;;;6.60;99.90;;;;;;5146952;27;20343;-49
2023/12/05 03:10:29;;;;;;;1.65;0.90;;;6.60;99.90;;;;;;5147458;27;20023;-48
2023/12/05 03:12:54;;;;;;;1.70;0.75;;;6.60;99.90;;;;;;5147328;27;20075;-48
2023/12/05 03:15:20;;;;;;;2.13;0.75;;;6.60;99.90;;;;;;5147378;27;20060;-47
2023/12/05 03:17:47;;;;;;;1.17;0.60;;;6.60;99.90;;;;;;5146369;27;20106;-49
2023/12/05 03:20:14;;;;;;;4.72;0.90;;;6.60;99.90;;;;;;5147312;27;20034;-46
2023/12/05 03:22:40;;;;;;;2.50;0.90;;;6.60;99.90;;;;;;5146090;27;20128;-47
2023/12/05 03:25:06;;;;;;;3.60;0.80;;;6.60;99.90;;;;;;5146967;27;20054;-46
2023/12/05 03:27:32;;;;;;;1.73;0.90;;;6.60;99.90;;;;;;5147125;27;20045;-47
2023/12/05 03:29:57;;;;;;;2.17;0.90;;;6.70;99.90;;;;;;5128834;27;20094;-46
2023/12/05 03:32:23;;;;;;;3.13;0.80;;;6.70;99.90;;;;;;5147083;27;20023;-50
2023/12/05 03:34:49;;;;;;;2.05;0.90;;;6.70;99.90;;;;;;5146946;27;20079;-50
2023/12/05 03:37:14;;;;;;;2.92;1.00;;;6.70;99.90;;;;;;5147013;27;20031;-50
2023/12/05 03:39:40;;;;;;;1.95;0.90;;;6.70;99.90;;;;;;5146510;27;20027;-48
2023/12/05 03:42:06;;;;;;;2.28;0.80;;;6.70;99.90;;;;;;5147143;27;20015;-50
2023/12/05 03:44:31;;;;;;;3.80;1.25;;;6.70;99.90;;;;;;5146897;27;20080;-49
2023/12/05 03:46:57;;;;;;;3.75;1.40;;;6.70;99.90;;;;;;5146993;27;20023;-50
2023/12/05 03:49:23;;;;;;;6.68;1.20;;;6.70;99.90;;;;;;5146660;27;20038;-50
2023/12/05 03:51:49;;;;;;;2.65;1.30;;;6.70;99.90;;;;;;5145384;27;20059;-50
2023/12/05 03:54:14;;;;;;;1.92;1.08;;;6.70;99.90;;;;;;5145370;27;20050;-50
2023/12/05 03:56:40;;;;;;;2.88;1.10;;;6.70;99.90;;;;;;5145532;27;20090;-49
2023/12/05 03:59:06;;;;;;;1.75;1.00;;;6.70;99.90;;;;;;5146422;27;20332;-50
2023/12/05 04:01:32;;;;;;;5.43;1.30;;;6.70;99.90;;;;;;5145516;28;20027;-50
2023/12/05 04:03:57;;;;;;;5.20;1.10;;;6.70;99.90;;;;;;5146667;28;20265;-50
2023/12/05 04:06:23;;;;;;;1.63;1.00;;;6.70;99.90;;;;;;5146687;28;20062;-51
2023/12/05 04:08:49;;;;;;;3.78;1.30;;;6.70;99.90;;;;;;5145402;28;20054;-51
2023/12/05 04:11:15;;;;;;;4.50;1.33;;;6.70;99.90;;;;;;5146321;28;20072;-50
2023/12/05 04:13:41;;;;;;;2.30;1.30;;;6.70;99.90;;;;;;5146675;27;20043;-50
2023/12/05 04:16:07;;;;;;;3.97;1.25;;;6.70;99.90;;;;;;5146653;28;20023;-49
2023/12/05 04:18:33;;;;;;;1.65;1.20;;;6.70;99.90;;;;;;5146559;28;20084;-51
2023/12/05 04:20:58;;;;;;;4.93;1.30;;;6.70;99.90;;;;;;5146600;28;20269;-50
2023/12/05 04:23:24;;;;;;;4.13;1.73;;;6.70;99.90;;;;;;5145386;28;20038;-48
2023/12/05 04:25:50;;;;;;;2.00;1.20;;;6.70;99.90;;;;;;5145277;28;20295;-47
2023/12/05 04:28:15;;;;;;;2.33;1.23;;;6.70;99.90;;;;;;5146552;28;20235;-50
2023/12/05 04:30:41;;;;;;;2.95;1.25;;;6.70;99.90;;;;;;5145166;28;20054;-49
2023/12/05 04:33:07;;;;;;;4.22;1.40;;;6.70;99.90;;;;;;5146178;28;20027;-47
2023/12/05 04:35:32;;;;;;;2.53;1.23;;;6.70;99.90;;;;;;5145462;28;20031;-48
2023/12/05 04:37:58;;;;;;;5.57;1.40;;;6.60;99.90;;;;;;5146382;28;20324;-48
2023/12/05 04:40:24;;;;;;;3.20;1.10;;;6.60;99.90;;;;;;5146374;28;20172;-48
2023/12/05 04:42:49;;;;;;;2.58;1.20;;;6.60;99.90;;;;;;5146284;28;20168;-49
2023/12/05 04:45:16;;;;;;;5.05;1.30;;;6.60;99.90;;;;;;5146273;28;20035;-50
2023/12/05 04:47:42;;;;;;;3.72;1.30;;;6.60;99.90;;;;;;5146195;27;20264;-48
2023/12/05 04:50:08;;;;;;;3.00;1.20;;;6.60;99.90;;;;;;5149313;27;20071;-49
2023/12/05 04:52:34;;;;;;;4.82;1.30;;;6.50;99.90;;;;;;5150710;27;20080;-50
2023/12/05 04:55:00;;;;;;;5.45;1.40;;;6.50;99.90;;;;;;5150071;27;20280;-49
2023/12/05 04:57:26;;;;;;;5.60;1.35;;;6.50;99.90;;;;;;5149576;27;20030;-49
2023/12/05 04:59:51;;;;;;;10.88;1.77;;;6.40;99.90;;;;;;5149009;27;20162;-50
2023/12/05 05:02:17;;;;;;;3.92;1.30;;;6.40;99.90;;;;;;5149955;27;20284;-50
2023/12/05 05:04:43;;;;;;;5.18;1.45;;;6.40;99.90;;;;;;5149813;27;20292;-50
2023/12/05 05:07:08;;;;;;;5.00;1.50;;;6.50;99.90;;;;;;5149545;27;20079;-47
2023/12/05 05:09:35;;;;;;;3.05;1.13;;;6.50;99.90;;;;;;5149663;27;20090;-47
2023/12/05 05:12:01;;;;;;;3.00;1.45;;;6.50;99.90;;;;;;5149693;27;20208;-47
2023/12/05 05:14:26;;;;;;;4.72;1.80;;;6.50;99.90;;;;;;5149267;27;20019;-47
2023/12/05 05:16:52;;;;;;;5.97;1.60;;;6.50;99.90;;;;;;5148751;27;20181;-48
2023/12/05 05:19:18;;;;;;;6.05;1.67;;;6.50;99.90;;;;;;5131385;27;20239;-50
2023/12/05 05:21:43;;;;;;;3.22;1.85;;;6.50;99.90;;;;;;5148753;27;20034;-47
2023/12/05 05:24:09;;;;;;;3.08;1.40;;;6.50;99.90;;;;;;5149680;27;20030;-47
2023/12/05 05:26:35;;;;;;;4.45;1.60;;;6.60;99.90;;;;;;5149480;27;20042;-50
2023/12/05 05:29:00;;;;;;;9.50;3.78;;;6.60;99.90;;;;;;5149197;27;20132;-49
2023/12/05 05:31:26;;;;;;;3.45;1.45;;;6.60;99.90;;;;;;5149308;27;20033;-48
2023/12/05 05:33:51;;;;;;;5.28;1.63;;;6.60;99.90;;;;;;5149354;27;20034;-48
2023/12/05 05:36:17;;;;;;;4.90;1.60;;;6.60;99.90;;;;;;5148327;27;20288;-47
2023/12/05 05:38:43;;;;;;;6.15;1.63;;;6.60;99.90;;;;;;5148921;27;20027;-49
2023/12/05 05:41:10;;;;;;;6.40;1.60;;;6.60;99.90;;;;;;5149130;27;20031;-48
2023/12/05 05:43:35;;;;;;;6.57;4.00;;;6.60;99.90;;;;;;5148982;27;20027;-48
2023/12/05 05:46:01;;;;;;;4.97;1.42;;;6.60;99.90;;;;;;5148717;27;20370;-47
2023/12/05 05:48:27;;;;;;;4.40;1.52;;;6.60;99.90;;;;;;5149096;27;20039;-47
2023/12/05 05:50:52;;;;;;;5.45;1.90;;;6.50;99.90;;;;;;5148856;27;20188;-48
2023/12/05 05:53:18;;;;;;;5.45;1.80;;;6.60;99.90;;;;;;5149089;27;20058;-47
2023/12/05 05:55:44;;;;;;;4.13;1.25;;;6.60;99.90;;;;;;5148852;27;20027;-47
2023/12/05 05:58:13;;;;;;;4.60;1.30;;;6.60;99.90;;;;;;5148880;27;20035;-47
2023/12/05 06:00:38;;;;;;;4.95;1.65;;;6.60;99.90;;;;;;5147036;27;20050;-47
2023/12/05 06:03:04;;;;;;;4.05;1.55;;;6.60;99.90;;;;;;5148412;27;20046;-48
2023/12/05 06:05:30;;;;;;;4.03;1.40;;;6.50;99.90;;;;;;5148726;27;20027;-47
2023/12/05 06:07:56;;;;;;;3.72;1.65;;;6.60;99.90;;;;;;5147235;27;20164;-47
2023/12/05 06:10:21;;;;;;;6.25;1.77;;;6.60;99.90;;;;;;5147437;27;20208;-47
2023/12/05 06:12:47;;;;;;;3.22;1.52;;;6.60;99.90;;;;;;5148435;27;20026;-47
2023/12/05 06:15:13;;;;;;;3.92;1.60;;;6.60;99.90;;;;;;5148672;27;20027;-47
2023/12/05 06:17:39;;;;;;;6.45;1.90;;;6.60;99.90;;;;;;5147229;27;20099;-47
2023/12/05 06:20:05;;;;;;;4.50;1.70;;;6.60;99.90;;;;;;5148543;27;20023;-47
2023/12/05 06:22:31;;;;;;;5.10;1.45;;;6.70;99.90;;;;;;5147478;27;20054;-47
2023/12/05 06:24:57;;;;;;;3.67;1.42;;;6.70;99.90;;;;;;5130025;27;20031;-47
2023/12/05 06:27:23;;;;;;;5.15;1.70;;;6.70;99.90;;;;;;5148147;27;20046;-47
2023/12/05 06:29:48;;;;;;;4.68;1.63;;;6.70;99.90;;;;;;5148298;27;20045;-47
2023/12/05 06:32:14;;;;;;;3.63;1.50;;;6.70;99.90;;;;;;5146983;27;20092;-47
2023/12/05 06:34:40;;;;;;;5.03;2.10;;;6.70;99.90;;;;;;5146725;27;20027;-47
2023/12/05 06:37:05;;;;;;;3.78;1.60;;;6.60;99.90;;;;;;5148028;27;20030;-47
2023/12/05 06:39:31;;;;;;;4.38;1.80;;;6.60;99.90;;;;;;5147973;27;20031;-48
2023/12/05 06:41:57;;;;;;;4.03;1.95;;;6.60;99.90;;;;;;5147925;27;20023;-47
2023/12/05 06:44:22;;;;;;;3.15;1.48;;;6.50;99.90;;;;;;5146821;27;20288;-47
2023/12/05 06:46:48;;;;;;;6.35;2.13;;;6.50;99.90;;;;;;5147490;27;20240;-49
2023/12/05 06:49:14;;;;;;;4.90;1.80;;;6.50;99.90;;;;;;5147383;27;20031;-47
2023/12/05 06:51:40;;;;;;;3.45;1.63;;;6.50;99.90;;;;;;5147642;27;20153;-47
2023/12/05 06:54:06;;;;;;;3.88;1.75;;;6.60;99.90;;;;;;5146959;27;20026;-50
2023/12/05 06:56:31;;;;;;;6.32;1.92;;;6.50;99.90;;;;;;5147692;27;20231;-48
2023/12/05 06:58:58;;;;;;;4.18;2.17;;;6.60;99.90;;;;;;5146391;27;20027;-48
2023/12/05 07:01:23;;;;;;;5.57;1.70;;;6.60;99.90;;;;;;5147563;27;20277;-50
2023/12/05 07:03:49;;;;;;;5.45;2.00;;;6.50;99.90;;;;;;5147312;27;20086;-50
2023/12/05 07:06:15;;;;;;;4.97;1.88;;;6.60;99.90;;;;;;5146431;27;20059;-50
2023/12/05 07:08:41;;;;;;;5.43;1.80;;;6.60;99.90;;;;;;5147069;27;20051;-50
2023/12/05 07:11:06;;;;;;;4.95;1.90;;;6.60;99.90;;;;;;5147206;27;20027;-50
2023/12/05 07:13:32;;;;;;;3.42;1.80;;;6.60;99.90;;;;;;5147202;27;20055;-51
2023/12/05 07:15:58;;;;;;;5.63;1.95;;;6.70;99.90;;;;;;5147350;27;20173;-50
2023/12/05 07:18:24;;;;;;;4.30;1.90;;;6.60;99.90;;;;;;5146144;27;20023;-49
2023/12/05 07:20:49;;;;;;;6.57;2.03;;;6.60;99.90;;;;;;5146974;27;20098;-50
2023/12/05 07:23:15;;;;;;;4.47;1.90;;;6.60;99.90;;;;;;5146964;27;20088;-50
2023/12/05 07:25:41;;;;;;;5.72;2.58;;;6.50;99.90;;;;;;5147037;27;20031;-48
2023/12/05 07:28:06;;;;;;;4.97;2.20;;;6.50;99.90;;;;;;5146069;27;20054;-51
2023/12/05 07:30:32;;;;;;;6.43;2.33;;;6.40;99.90;;;;;;5146987;27;20300;-49
2023/12/05 07:32:58;;;;;;;6.30;2.60;;;6.40;99.90;;;;;;5145725;27;20027;-49
2023/12/05 07:35:23;;;;;;;4.85;2.13;;;6.30;99.90;;;;;;5146482;27;20050;-47
2023/12/05 07:37:49;;;;;;;7.60;2.72;;;6.30;99.90;;;;;;5146335;27;20316;-48
2023/12/05 07:40:15;;;;;;;5.72;2.28;;;6.30;99.90;;;;;;5146837;27;20065;-46
2023/12/05 07:42:41;;;;;;;5.63;2.00;;;6.30;99.90;;;;;;5145468;27;20038;-46
2023/12/05 07:45:07;;;;;;;7.07;2.00;;;6.30;99.90;;;;;;5145455;27;20015;-45
2023/12/05 07:47:34;;;;;;;4.22;1.90;;;6.30;99.90;;;;;;5146671;27;20269;-46
2023/12/05 07:49:59;;;;;;;5.90;2.67;;;6.30;99.90;;;;;;5146720;27;20038;-47
2023/12/05 07:52:25;;;;;;;6.53;2.63;;;6.40;99.90;;;;;;5146655;27;20046;-45
2023/12/05 07:54:51;;;;;;;7.35;2.17;;;6.50;99.90;;;;;;5146542;27;20046;-46
2023/12/05 07:57:22;;;;;;;5.43;2.38;;;6.50;99.90;;;;;;5146550;27;20027;-47
2023/12/05 07:59:48;;;;;;;6.40;2.20;;;6.50;99.90;;;;;;5146694;27;20164;-47
2023/12/05 08:02:14;;;;;;;8.60;2.70;;;6.50;99.90;;;;;;5146687;27;20023;-46
2023/12/05 08:04:41;;;;;;;6.53;2.03;;;6.40;99.90;;;;;;5146171;28;20106;-46
2023/12/05 08:07:07;;;;;;;4.95;2.35;;;6.40;99.90;;;;;;5111683;28;20051;-47
2023/12/05 08:09:33;;;;;;;6.07;2.35;;;6.50;99.90;;;;;;5128350;28;20298;-47
2023/12/05 08:11:58;;;;;;;6.82;2.13;;;6.50;99.90;;;;;;5146456;28;20062;-48
2023/12/05 08:14:24;;;;;;;4.15;2.08;;;6.50;99.90;;;;;;5146501;28;20015;-47
2023/12/05 08:16:50;;;;;;;4.78;1.85;;;6.50;99.90;;;;;;5146428;28;20080;-47
2023/12/05 08:19:15;;;;;;;6.78;1.95;;;6.40;99.90;;;;;;5146114;28;20079;-47
2023/12/05 08:21:41;;;;;;;4.72;2.00;;;6.40;99.90;;;;;;5146385;28;20034;-46
2023/12/05 08:24:07;;;;;;;5.57;2.30;;;6.30;99.90;;;;;;5148079;27;20041;-46
2023/12/05 08:26:33;;;;;;;10.40;2.60;;;6.30;99.90;;;;;;5149388;27;20043;-48
2023/12/05 08:28:58;;;;;;;6.03;3.38;;;6.30;99.90;;;;;;5150221;27;20033;-47
2023/12/05 08:31:24;;;;;;;8.05;2.88;;;6.30;99.90;;;;;;5150065;27;20062;-49
2023/12/05 08:33:50;;;;;;;7.68;2.53;;;6.20;99.90;;;;;;5149239;27;20242;-49
2023/12/05 08:36:16;;;;;;;11.88;3.30;;;6.20;99.90;;;;;;5150355;27;20019;-48
2023/12/05 08:38:41;;;;;;;7.80;3.30;;;6.30;99.90;;;;;;5150028;27;20090;-50
2023/12/05 08:41:07;;;;;;;9.20;3.20;;;6.30;99.90;;;;;;5150080;27;20034;-49
2023/12/05 08:43:33;;;;;;;6.57;2.65;;;6.30;99.90;;;;;;5131502;27;20166;-49
2023/12/05 08:46:00;;;;;;;7.25;2.80;;;6.40;99.90;;;;;;5149780;27;20027;-47
2023/12/05 08:48:25;;;;;;;10.88;3.00;;;6.40;99.90;;;;;;5131818;27;20099;-49
2023/12/05 08:50:51;;;;;;;7.57;2.67;;;6.50;99.90;;;;;;5149685;27;20031;-49
2023/12/05 08:53:17;;;;;;;7.25;3.03;;;6.40;99.90;;;;;;5149569;27;20027;-48
2023/12/05 08:55:43;;;;;;;8.30;3.08;;;6.40;99.90;;;;;;5148898;27;20038;-49
2023/12/05 08:58:09;;;;;;;6.10;3.20;;;6.40;99.90;;;;;;5149451;27;20068;-48
2023/12/05 09:00:35;;;;;;;5.80;2.80;;;6.40;99.90;;;;;;5148610;27;20027;-47
2023/12/05 09:03:00;;;;;;;12.68;4.88;;;6.50;99.90;;;;;;5149461;27;20035;-46
2023/12/05 09:05:26;;;;;;;12.20;6.68;;;6.50;99.90;;;;;;5148355;27;20179;-46
2023/12/05 09:07:52;;;;;;;11.45;6.03;;;6.50;99.90;;;;;;5149151;27;20055;-49
2023/12/05 09:10:18;;;;;;;6.07;3.35;;;6.50;99.90;;;;;;5148877;27;20050;-47
2023/12/05 09:12:44;;;;;;;7.45;3.05;;;6.60;99.90;;;;;;5149646;27;20092;-49
2023/12/05 09:15:10;;;;;;;6.57;2.55;;;6.60;99.90;;;;;;5149183;27;20027;-48
2023/12/05 09:17:36;;;;;;;6.00;2.88;;;6.60;99.90;;;;;;5149252;27;20096;-47
2023/12/05 09:20:03;;;;;;;7.43;2.70;;;6.70;99.90;;;;;;5149488;27;20026;-47
2023/12/05 09:22:28;;;;;;;9.98;3.30;;;6.60;99.90;;;;;;5149407;27;20034;-47
2023/12/05 09:24:54;;;;;;;7.28;2.80;;;6.70;99.90;;;;;;5148630;27;20273;-49
2023/12/05 09:27:20;;;;;;;10.20;3.30;;;6.70;99.90;;;;;;5147945;27;20019;-49
2023/12/05 09:29:46;;;;;;;5.88;2.50;;;6.80;99.90;;;;;;5149164;27;20027;-47
2023/12/05 09:32:11;;;;;;;11.02;3.70;;;6.90;99.90;;;;;;5148765;27;20034;-50
2023/12/05 09:34:37;;;;;;;10.27;4.28;;;7.00;99.90;;;;;;5148752;27;20019;-48
2023/12/05 09:37:03;;;;;;;10.63;5.35;;;7.00;99.90;;;;;;5148965;27;20031;-50
2023/12/05 09:39:31;;;;;;;17.30;6.70;;;7.10;99.90;;;;;;5149095;27;20035;-49
2023/12/05 09:41:57;;;;;;;15.07;6.07;;;7.10;99.90;;;;;;5148448;27;20064;-49
2023/12/05 09:44:23;;;;;;;12.00;6.15;;;7.20;99.90;;;;;;5148739;27;20094;-50
2023/12/05 09:46:52;;;;;;;13.32;4.15;;;7.20;99.90;;;;;;5113244;27;20046;-47
2023/12/05 09:49:17;;;;;;;7.43;2.80;;;7.30;99.90;;;;;;5148615;27;20162;-50
2023/12/05 09:51:43;;;;;;;5.35;2.25;;;7.30;99.90;;;;;;5147779;27;20061;-50
2023/12/05 09:54:09;;;;;;;7.28;3.55;;;7.40;99.90;;;;;;5148873;27;20027;-48
2023/12/05 09:56:35;;;;;;;6.25;3.15;;;7.30;99.90;;;;;;5148842;27;20015;-50
2023/12/05 09:59:01;;;;;;;7.70;3.35;;;7.30;99.90;;;;;;5148681;27;20027;-50
2023/12/05 10:01:27;;;;;;;7.40;3.67;;;7.40;99.90;;;;;;5147538;27;20238;-50
2023/12/05 10:03:57;;;;;;;5.43;3.13;;;7.50;99.90;;;;;;5148560;27;20300;-49
2023/12/05 10:06:24;;;;;;;;;;;7.50;99.90;;;;;;5147842;27;20038;-50
2023/12/05 10:08:51;;;;;;;9.70;3.10;;;7.60;99.90;;;;;;5148094;27;19915;-49
2023/12/05 10:11:17;;;;;;;7.32;3.72;;;7.70;99.90;;;;;;5147469;27;20080;-48
2023/12/05 10:13:43;;;;;;;4.30;2.08;;;7.80;99.90;;;;;;5147268;27;20031;-47
2023/12/05 10:16:08;;;;;;;6.25;2.40;;;7.80;99.90;;;;;;5147383;27;20042;-48
2023/12/05 10:18:34;;;;;;;7.40;2.20;;;8.00;99.90;;;;;;5148453;27;20031;-49
2023/12/05 10:21:00;;;;;;;5.47;2.15;;;8.00;99.90;;;;;;5130423;27;20038;-48
2023/12/05 10:23:25;;;;;;;6.75;2.10;;;8.10;99.90;;;;;;5148201;27;20092;-47
2023/12/05 10:25:52;;;;;;;6.13;2.22;;;8.10;99.90;;;;;;5147964;27;20047;-47
2023/12/05 10:28:17;;;;;;;7.50;2.80;;;8.20;99.90;;;;;;5148088;27;20042;-49
2023/12/05 10:30:43;;;;;;;7.28;2.45;;;8.10;99.90;;;;;;5147620;27;20035;-51
2023/12/05 10:33:13;;;;;;;8.90;3.60;;;8.10;99.90;;;;;;5146852;27;20011;-51
2023/12/05 10:35:39;;;;;;;4.53;1.88;;;8.10;99.90;;;;;;5147847;27;20058;-50
2023/12/05 10:38:06;;;;;;;5.63;2.47;;;8.00;99.90;;;;;;5147786;27;20186;-49
2023/12/05 10:40:52;;;;;;;7.07;2.45;;;8.00;99.90;;;;;;5147940;27;20071;-51
2023/12/05 10:43:19;;;;;;;5.93;2.40;;;8.10;99.90;;;;;;5147317;27;20041;-50
2023/12/05 10:45:44;;;;;;;8.63;2.05;;;8.10;99.90;;;;;;5147509;27;20038;-51
2023/12/05 10:48:12;;;;;;;5.53;2.40;;;8.20;99.90;;;;;;5147253;27;20058;-51
2023/12/05 10:50:41;;;;;;;6.40;1.95;;;8.30;99.90;;;;;;5146641;27;20042;-50
2023/12/05 10:53:07;;;;;;;8.55;1.85;;;8.30;99.90;;;;;;5146562;27;20020;-52
2023/12/05 10:55:33;;;;;;;6.43;1.98;;;8.40;99.90;;;;;;5128997;27;20023;-48
2023/12/05 10:57:59;;;;;;;6.25;1.95;;;8.30;99.90;;;;;;5147539;27;20291;-49
2023/12/05 11:00:26;;;;;;;6.65;1.95;;;8.40;99.90;;;;;;5146450;27;20019;-50
2023/12/05 11:02:51;;;;;;;4.90;2.15;;;8.40;99.90;;;;;;5129653;27;20098;-50
2023/12/05 11:05:17;;;;;;;6.60;3.28;;;8.60;99.90;;;;;;5146381;27;20039;-50
2023/12/05 11:07:43;;;;;;;7.90;2.10;;;8.80;99.90;;;;;;5146002;27;20073;-49
2023/12/05 11:10:09;;;;;;;4.15;1.52;;;9.10;99.90;;;;;;5147698;27;20114;-48
2023/12/05 11:12:35;;;;;;;6.38;2.08;;;9.10;99.90;;;;;;5146222;27;20201;-47
2023/12/05 11:15:01;;;;;;;4.60;1.63;;;9.00;99.90;;;;;;5128840;27;20011;-50
2023/12/05 11:17:28;;;;;;;8.00;2.33;;;9.00;99.90;;;;;;5129027;27;20038;-47
2023/12/05 11:20:30;;;;;;;6.68;1.65;;;9.10;99.90;;;;;;5128677;27;20031;-51
2023/12/05 11:23:02;;;;;;;6.28;1.80;;;9.10;99.90;;;;;;5114045;27;20042;-48
2023/12/05 11:25:34;;;;;;;5.40;1.92;;;9.20;99.90;;;;;;5147054;27;20289;-50
2023/12/05 11:28:25;;;;;;;4.95;1.90;;;9.00;99.90;;;;;;5146969;27;20030;-50
2023/12/05 11:31:29;;;;;;;5.03;1.40;;;8.80;99.90;;;;;;5146632;27;20157;-48
2023/12/05 11:34:07;;;;;;;4.75;1.63;;;9.00;99.90;;;;;;5104550;27;20031;-47
2023/12/05 11:36:33;;;;;;;4.35;1.63;;;9.00;99.90;;;;;;5146603;27;20354;-49
2023/12/05 11:38:58;;;;;;;6.72;2.03;;;9.20;99.90;;;;;;5146030;27;20109;-47
2023/12/05 11:41:24;;;;;;;7.13;1.88;;;10.00;99.90;;;;;;5144791;27;20076;-49
2023/12/05 11:44:12;;;;;;;6.15;2.08;;;11.10;99.90;;;;;;5128472;27;20039;-50
2023/12/05 11:46:41;;;;;;;4.28;1.60;;;12.00;99.90;;;;;;5146792;27;20019;-50
2023/12/05 11:49:07;;;;;;;5.22;2.05;;;13.40;99.90;;;;;;5146526;27;20095;-49
2023/12/05 11:51:33;;;;;;;2.58;1.65;;;12.50;99.90;;;;;;5146159;27;20098;-50
2023/12/05 11:54:05;;;;;;;3.50;1.50;;;11.10;99.90;;;;;;5146033;27;20019;-49
2023/12/05 11:56:30;;;;;;;2.40;1.25;;;10.40;99.90;;;;;;5146558;27;20039;-50
2023/12/05 11:59:12;;;;;;;1.40;1.00;;;10.30;99.90;;;;;;5145193;27;20065;-47
2023/12/05 12:01:37;;;;;;;2.53;1.00;;;10.20;99.90;;;;;;5146261;27;20262;-49
2023/12/05 12:04:03;;;;;;;19.60;17.80;;;10.80;99.90;;;;;;5145427;28;20035;-46
2023/12/05 12:06:29;;;;;;;4.85;1.45;;;11.40;99.90;;;;;;5127654;28;20064;-48
2023/12/05 12:08:56;;;;;;;3.92;1.67;;;12.60;99.90;;;;;;5127857;28;20043;-46
2023/12/05 12:11:22;;;;;;;3.70;1.80;;;12.70;99.90;;;;;;5145843;28;20027;-53
2023/12/05 12:13:48;;;;;;;3.38;1.63;;;12.90;99.90;;;;;;5146244;28;20295;-47
2023/12/05 12:16:18;;;;;;;2.60;1.98;;;13.20;97.40;;;;;;5146186;27;20046;-50
2023/12/05 12:18:44;;;;;;;4.75;1.30;;;13.30;97.70;;;;;;5145447;28;20030;-48
2023/12/05 12:21:10;;;;;;;2.72;1.10;;;13.00;99.90;;;;;;5146299;28;20047;-46
2023/12/05 12:23:36;;;;;;;2.40;1.08;;;12.60;99.90;;;;;;5145190;28;20088;-46
2023/12/05 12:26:02;;;;;;;5.13;1.65;;;12.20;99.90;;;;;;5144900;28;20031;-47
2023/12/05 12:28:29;;;;;;;3.67;1.20;;;12.00;99.90;;;;;;5146282;28;20268;-46
2023/12/05 12:30:56;;;;;;;6.35;1.52;;;12.80;99.90;;;;;;5145584;28;20098;-46
2023/12/05 12:33:22;;;;;;;3.55;1.40;;;14.20;97.20;;;;;;5145623;28;20029;-47
2023/12/05 12:35:49;;;;;;;1.88;1.35;;;14.70;90.60;;;;;;5145847;28;20137;-47
2023/12/05 12:38:15;;;;;;;4.55;1.30;;;13.60;94.70;;;;;;5145592;28;20038;-47
2023/12/05 12:40:41;;;;;;;3.63;1.08;;;12.20;99.90;;;;;;5144593;28;20027;-47
2023/12/05 12:43:08;;;;;;;3.15;1.35;;;10.90;99.90;;;;;;5145369;28;20073;-46
2023/12/05 12:45:34;;;;;;;4.72;2.25;;;10.10;99.90;;;;;;5144842;28;20035;-47
2023/12/05 12:48:03;;;;;;;10.77;5.82;;;9.70;99.90;;;;;;5144875;28;20030;-46
2023/12/05 12:50:29;;;;;;;5.32;1.52;;;9.30;99.90;;;;;;5146024;28;20072;-46
2023/12/05 12:52:55;;;;;;;4.07;1.00;;;9.10;99.90;;;;;;5145430;27;20027;-47